Time;durP1;ratioP1;P1;durP2;ratioP2;P2;SDS_P1;SDS_P2;PMS_P1;PMS_P2;Temp;Humidity;BMP_temperature;BMP_pressure;BME280_temperature;BME280_humidity;BME280_pressure;Samples;Min_cycle;Max_cycle;Signal;HPM_P1;HPM_P2
2022/06/05 00:00:57;;;;;;;5.43;4.18;;;20.40;67.70;;;;;;4954608;28;20039;-81
2022/06/05 00:03:53;;;;;;;5.65;3.97;;;20.40;67.40;;;;;;4955250;28;20023;-81
2022/06/05 00:06:48;;;;;;;5.38;3.80;;;20.30;67.90;;;;;;4954706;28;20039;-81
2022/06/05 00:09:35;;;;;;;7.72;3.88;;;20.20;68.50;;;;;;4950747;28;20030;-81
2022/06/05 00:12:14;;;;;;;4.90;3.97;;;20.10;68.60;;;;;;4936490;29;20446;-81
2022/06/05 00:14:43;;;;;;;6.68;3.92;;;20.00;68.70;;;;;;4936706;29;20032;-81
2022/06/05 00:17:12;;;;;;;7.57;3.75;;;20.00;68.20;;;;;;4936404;29;20091;-81
2022/06/05 00:19:43;;;;;;;5.65;3.65;;;19.80;69.00;;;;;;4936623;29;20046;-81
2022/06/05 00:22:09;;;;;;;4.72;3.63;;;19.80;69.50;;;;;;4955386;29;20050;-81
2022/06/05 00:24:35;;;;;;;6.15;3.63;;;19.70;69.70;;;;;;4945237;28;20380;-81
2022/06/05 00:27:25;;;;;;;5.53;3.88;;;19.70;69.20;;;;;;4951051;29;20027;-81
2022/06/05 00:29:57;;;;;;;5.25;3.40;;;19.60;69.80;;;;;;4955377;29;20074;-81
2022/06/05 00:32:39;;;;;;;4.10;3.45;;;19.50;70.10;;;;;;4942408;28;20059;-81
2022/06/05 00:35:10;;;;;;;5.22;3.45;;;19.50;69.80;;;;;;4955489;28;20016;-81
2022/06/05 00:37:50;;;;;;;9.57;3.83;;;19.40;70.50;;;;;;4948142;28;20039;-81
2022/06/05 00:40:32;;;;;;;7.53;4.05;;;19.40;70.10;;;;;;4935134;29;20867;-81
2022/06/05 00:42:59;;;;;;;7.38;3.67;;;19.40;70.90;;;;;;4951084;28;20586;-81
2022/06/05 00:45:28;;;;;;;6.80;3.47;;;19.40;70.70;;;;;;4951132;29;20027;-81
2022/06/05 00:47:54;;;;;;;9.65;3.33;;;19.50;70.50;;;;;;4951071;29;20031;-81
2022/06/05 00:50:27;;;;;;;7.40;4.07;;;19.40;70.60;;;;;;4963789;28;20043;-81
2022/06/05 00:52:58;;;;;;;5.03;3.72;;;19.40;70.10;;;;;;4935161;29;20038;-81
2022/06/05 00:55:27;;;;;;;7.05;3.50;;;19.50;70.20;;;;;;4936287;29;20032;-81
2022/06/05 00:57:54;;;;;;;8.15;3.35;;;19.50;70.10;;;;;;4949890;29;20078;-81
2022/06/05 01:00:21;;;;;;;7.40;3.53;;;19.40;70.50;;;;;;4955375;28;20023;-81
2022/06/05 01:02:54;;;;;;;5.43;3.28;;;19.30;70.80;;;;;;4955369;28;20058;-81
2022/06/05 01:05:24;;;;;;;7.07;3.33;;;19.30;71.30;;;;;;4951748;28;20135;-81
2022/06/05 01:07:49;;;;;;;5.63;3.53;;;19.20;71.20;;;;;;4936401;29;20487;-81
2022/06/05 01:10:17;;;;;;;7.32;3.58;;;19.20;70.90;;;;;;4936178;29;20142;-81
2022/06/05 01:13:28;;;;;;;4.22;3.22;;;19.30;70.60;;;;;;4950695;28;20031;-81
2022/06/05 01:15:54;;;;;;;8.60;3.75;;;19.30;70.00;;;;;;4920916;29;20050;-81
2022/06/05 01:18:53;;;;;;;6.60;3.30;;;19.50;69.30;;;;;;4937344;29;20044;-81
2022/06/05 01:21:37;;;;;;;4.80;3.28;;;19.40;69.50;;;;;;4950180;29;20137;-81
2022/06/05 01:24:18;;;;;;;7.90;3.47;;;19.30;70.20;;;;;;4939521;29;20028;-81
2022/06/05 01:26:52;;;;;;;5.38;3.70;;;19.20;70.30;;;;;;4939637;29;20387;-81
2022/06/05 01:29:44;;;;;;;6.15;4.00;;;19.10;70.70;;;;;;4939350;29;20032;-81
2022/06/05 01:32:33;;;;;;;5.35;3.45;;;18.90;70.70;;;;;;4941037;29;20126;-81
2022/06/05 01:35:08;;;;;;;5.65;3.22;;;18.80;71.70;;;;;;4976398;28;20445;-81
2022/06/05 01:37:39;;;;;;;7.50;3.75;;;18.80;71.30;;;;;;4958434;28;20430;-81
2022/06/05 01:40:11;;;;;;;5.25;4.00;;;18.80;71.30;;;;;;4972851;28;20034;-81
2022/06/05 01:42:38;;;;;;;6.07;3.88;;;18.80;71.70;;;;;;4958094;29;20046;-81
2022/06/05 01:45:10;;;;;;;6.32;4.32;;;18.70;72.00;;;;;;4939645;29;20027;-81
2022/06/05 01:47:41;;;;;;;5.35;3.97;;;18.70;72.30;;;;;;4939059;29;20039;-81
2022/06/05 01:50:20;;;;;;;6.60;3.72;;;18.70;72.00;;;;;;4939086;29;20680;-81
2022/06/05 01:53:04;;;;;;;6.78;3.88;;;18.70;72.20;;;;;;4939076;29;20091;-81
2022/06/05 01:55:43;;;;;;;9.00;4.47;;;18.80;72.00;;;;;;4953778;29;20119;-81
2022/06/05 01:58:13;;;;;;;7.30;4.10;;;18.80;71.10;;;;;;4939097;29;20777;-81
2022/06/05 02:00:39;;;;;;;7.20;4.32;;;18.80;71.10;;;;;;4938785;29;20114;-81
2022/06/05 02:03:04;;;;;;;7.72;4.15;;;18.80;71.40;;;;;;4938923;29;20066;-81
2022/06/05 02:05:57;;;;;;;11.68;4.70;;;18.80;71.40;;;;;;4950079;29;20043;-81
2022/06/05 02:08:43;;;;;;;9.10;5.18;;;18.80;71.80;;;;;;4956847;28;20038;-81
2022/06/05 02:11:22;;;;;;;11.27;5.43;;;18.80;71.70;;;;;;4956182;28;20038;-80
2022/06/05 02:13:56;;;;;;;9.05;5.43;;;18.80;71.40;;;;;;4938785;29;20035;-81
2022/06/05 02:16:22;;;;;;;5.93;4.55;;;18.80;71.60;;;;;;4938492;29;20035;-81
2022/06/05 02:18:48;;;;;;;9.23;5.70;;;18.80;71.00;;;;;;4938652;29;20489;-81
2022/06/05 02:21:14;;;;;;;8.25;4.40;;;18.70;72.00;;;;;;4950090;29;20028;-80
2022/06/05 02:23:41;;;;;;;8.02;4.28;;;18.70;71.70;;;;;;4955988;28;20033;-81
2022/06/05 02:26:09;;;;;;;9.82;4.50;;;18.60;71.90;;;;;;4956953;28;20027;-81
2022/06/05 02:28:35;;;;;;;6.60;4.35;;;18.60;71.80;;;;;;4957398;28;20113;-81
2022/06/05 02:31:10;;;;;;;7.43;4.40;;;18.50;72.10;;;;;;4957582;28;20031;-81
2022/06/05 02:33:57;;;;;;;7.72;4.38;;;18.50;72.30;;;;;;4955136;28;20038;-81
2022/06/05 02:36:28;;;;;;;8.48;4.38;;;18.50;72.30;;;;;;4957300;28;20027;-81
2022/06/05 02:39:11;;;;;;;8.35;4.28;;;18.40;72.70;;;;;;4954145;29;20195;-81
2022/06/05 02:42:03;;;;;;;6.28;3.60;;;18.30;72.90;;;;;;4938159;29;20130;-81
2022/06/05 02:44:38;;;;;;;6.70;4.10;;;18.30;72.60;;;;;;4936621;29;20027;-81
2022/06/05 02:47:26;;;;;;;9.00;4.80;;;18.40;72.50;;;;;;4937970;29;20047;-81
2022/06/05 02:50:13;;;;;;;8.43;4.05;;;18.50;72.10;;;;;;4937865;29;20024;-81
2022/06/05 02:52:41;;;;;;;8.52;4.65;;;18.30;72.10;;;;;;4937836;29;20036;-81
2022/06/05 02:55:15;;;;;;;8.55;4.15;;;18.40;71.80;;;;;;4937783;29;20023;-80
2022/06/05 02:57:42;;;;;;;9.55;3.85;;;18.30;71.70;;;;;;4952004;29;20091;-81
2022/06/05 03:00:11;;;;;;;8.38;4.70;;;18.30;72.30;;;;;;4937681;29;20047;-81
2022/06/05 03:05:21;;;;;;;8.35;4.65;;;18.20;72.80;;;;;;4937676;29;20043;-80
2022/06/05 03:07:47;;;;;;;7.43;3.95;;;18.20;73.10;;;;;;4937578;29;20032;-80
2022/06/05 03:10:13;;;;;;;9.43;4.18;;;18.20;73.10;;;;;;4937597;29;20047;-81
2022/06/05 03:12:38;;;;;;;12.30;4.60;;;18.10;73.20;;;;;;4937695;29;20055;-80
2022/06/05 03:15:06;;;;;;;12.05;4.05;;;18.10;73.00;;;;;;4952381;29;20107;-80
2022/06/05 03:17:32;;;;;;;9.05;4.20;;;18.10;72.50;;;;;;4937238;29;20465;-80
2022/06/05 03:19:58;;;;;;;8.60;4.22;;;18.10;72.30;;;;;;4953518;29;20048;-80
2022/06/05 03:22:24;;;;;;;11.60;4.63;;;18.00;73.00;;;;;;4955495;29;20023;-80
2022/06/05 03:24:50;;;;;;;9.48;4.13;;;18.00;73.10;;;;;;4951034;28;20034;-81
2022/06/05 03:27:16;;;;;;;7.18;4.63;;;18.00;73.30;;;;;;4936077;29;20446;-81
2022/06/05 03:29:41;;;;;;;9.32;4.60;;;18.00;72.90;;;;;;4952147;29;20032;-80
2022/06/05 03:32:07;;;;;;;7.90;4.00;;;18.00;73.00;;;;;;4967848;28;20117;-81
2022/06/05 03:34:33;;;;;;;6.47;4.13;;;18.00;73.30;;;;;;4956267;28;20126;-80
2022/06/05 03:36:59;;;;;;;7.57;4.57;;;18.00;72.90;;;;;;4955727;28;20031;-81
2022/06/05 03:39:25;;;;;;;10.63;4.57;;;18.10;72.60;;;;;;4940245;28;20552;-81
2022/06/05 03:41:50;;;;;;;8.73;4.55;;;18.10;72.70;;;;;;4936781;29;20144;-81
2022/06/05 03:44:16;;;;;;;8.50;4.97;;;18.10;72.90;;;;;;4920149;29;20074;-82
2022/06/05 03:46:42;;;;;;;6.70;4.28;;;18.10;72.60;;;;;;4936887;29;20034;-81
2022/06/05 03:49:08;;;;;;;9.57;4.10;;;18.10;72.80;;;;;;4951652;29;20042;-81
2022/06/05 03:51:37;;;;;;;6.88;4.22;;;18.00;72.60;;;;;;4951761;29;20023;-80
2022/06/05 03:54:03;;;;;;;11.05;5.25;;;17.90;73.70;;;;;;4936896;29;20099;-80
2022/06/05 03:56:30;;;;;;;8.25;3.75;;;17.80;73.90;;;;;;4936746;29;20036;-81
2022/06/05 03:58:57;;;;;;;9.90;5.35;;;17.70;74.10;;;;;;4936595;29;20032;-81
2022/06/05 04:01:24;;;;;;;7.40;4.80;;;17.70;74.00;;;;;;4937044;29;20016;-81
2022/06/05 04:03:51;;;;;;;8.52;4.57;;;17.70;74.20;;;;;;4936397;29;20126;-81
2022/06/05 04:06:20;;;;;;;10.15;4.95;;;17.70;73.40;;;;;;4936669;28;20083;-81
2022/06/05 04:08:45;;;;;;;6.95;4.95;;;17.60;73.60;;;;;;4936712;29;20035;-80
2022/06/05 04:11:13;;;;;;;8.98;5.07;;;17.60;73.80;;;;;;4951308;29;20043;-81
2022/06/05 04:13:40;;;;;;;8.57;4.80;;;17.50;74.40;;;;;;4936535;29;20036;-80
2022/06/05 04:16:18;;;;;;;9.65;5.07;;;17.50;73.70;;;;;;4936650;29;20112;-80
2022/06/05 04:18:43;;;;;;;7.28;4.90;;;17.60;73.40;;;;;;4951161;29;20055;-80
2022/06/05 04:21:12;;;;;;;13.75;5.72;;;17.60;73.70;;;;;;4955000;28;20038;-81
2022/06/05 04:23:38;;;;;;;14.07;6.03;;;17.50;74.20;;;;;;4954289;28;20508;-81
2022/06/05 04:26:09;;;;;;;9.10;4.90;;;17.50;74.70;;;;;;4954528;28;20602;-80
2022/06/05 04:28:36;;;;;;;8.73;4.80;;;17.40;74.10;;;;;;4954373;29;20149;-80
2022/06/05 04:31:15;;;;;;;10.52;5.32;;;17.30;74.60;;;;;;4954494;28;20114;-80
2022/06/05 04:33:40;;;;;;;7.60;4.40;;;17.30;74.80;;;;;;4954235;29;20054;-81
2022/06/05 04:36:06;;;;;;;7.28;4.35;;;17.30;74.90;;;;;;4954478;28;20469;-81
2022/06/05 04:38:32;;;;;;;8.63;5.22;;;17.40;74.80;;;;;;4954088;28;20055;-81
2022/06/05 04:40:57;;;;;;;10.30;5.18;;;17.40;74.60;;;;;;4950772;29;20063;-81
2022/06/05 04:43:23;;;;;;;8.00;4.78;;;17.50;74.40;;;;;;4936447;29;20032;-80
2022/06/05 04:45:50;;;;;;;10.65;5.32;;;17.50;73.90;;;;;;4937199;29;20059;-81
2022/06/05 04:48:15;;;;;;;11.82;5.43;;;17.50;74.40;;;;;;4946146;29;20031;-81
2022/06/05 04:50:41;;;;;;;10.82;5.75;;;17.50;74.00;;;;;;4939939;29;20042;-81
2022/06/05 04:53:07;;;;;;;10.40;5.25;;;17.50;74.10;;;;;;4940005;29;20043;-80
2022/06/05 04:55:34;;;;;;;9.52;5.38;;;17.60;74.10;;;;;;4940317;29;20059;-81
2022/06/05 04:58:00;;;;;;;11.73;5.47;;;17.60;74.20;;;;;;4962220;28;20036;-81
2022/06/05 05:00:26;;;;;;;11.68;6.03;;;17.70;74.40;;;;;;4938530;29;20032;-81
2022/06/05 05:02:52;;;;;;;13.82;5.80;;;17.70;74.60;;;;;;4943552;29;20027;-80
2022/06/05 05:05:17;;;;;;;10.25;5.80;;;17.70;74.50;;;;;;4951228;28;20027;-80
2022/06/05 05:07:43;;;;;;;10.43;5.80;;;17.70;74.40;;;;;;4958703;28;20027;-80
2022/06/05 05:10:09;;;;;;;9.60;5.47;;;17.70;74.70;;;;;;4940427;29;20031;-80
2022/06/05 05:12:35;;;;;;;10.48;5.25;;;17.70;74.60;;;;;;4954085;29;20040;-81
2022/06/05 05:15:00;;;;;;;13.68;5.13;;;17.80;74.30;;;;;;4956748;29;20065;-80
2022/06/05 05:17:26;;;;;;;12.48;5.32;;;17.70;75.10;;;;;;4957455;28;20086;-79
2022/06/05 05:19:52;;;;;;;9.95;4.90;;;17.80;75.00;;;;;;4956115;28;20088;-80
2022/06/05 05:22:17;;;;;;;11.82;6.10;;;17.80;74.40;;;;;;4958743;28;20426;-80
2022/06/05 05:24:44;;;;;;;10.48;5.40;;;17.90;74.20;;;;;;4964723;28;20023;-80
2022/06/05 05:27:10;;;;;;;15.77;6.07;;;17.90;74.30;;;;;;4954005;29;20071;-80
2022/06/05 05:29:39;;;;;;;12.98;5.55;;;17.90;74.40;;;;;;4968359;28;20036;-80
2022/06/05 05:32:06;;;;;;;11.85;6.25;;;18.00;73.90;;;;;;4940755;29;20020;-80
2022/06/05 05:34:31;;;;;;;14.98;5.95;;;18.00;74.00;;;;;;4945144;28;20047;-80
2022/06/05 05:36:57;;;;;;;17.23;6.38;;;18.00;73.80;;;;;;4958916;28;20039;-80
2022/06/05 05:42:07;;;;;;;12.45;6.47;;;18.10;73.80;;;;;;4958289;29;20058;-81
2022/06/05 05:44:38;;;;;;;14.68;6.13;;;18.00;74.20;;;;;;4958189;28;20058;-80
2022/06/05 05:47:08;;;;;;;16.80;6.18;;;18.00;74.30;;;;;;4956413;28;20054;-81
2022/06/05 05:49:34;;;;;;;17.80;5.97;;;18.10;74.30;;;;;;4958255;29;20147;-81
2022/06/05 05:52:00;;;;;;;14.65;6.88;;;18.10;74.30;;;;;;4972922;28;20073;-80
2022/06/05 05:54:26;;;;;;;14.20;6.30;;;18.10;74.40;;;;;;4941241;28;20391;-80
2022/06/05 05:56:52;;;;;;;13.68;6.75;;;18.20;74.00;;;;;;4937686;29;20562;-81
2022/06/05 05:59:19;;;;;;;16.10;6.60;;;18.20;74.10;;;;;;4953695;29;20510;-81
2022/06/05 06:01:45;;;;;;;15.13;6.70;;;18.20;74.10;;;;;;4946291;29;20031;-80
2022/06/05 06:04:11;;;;;;;13.10;6.13;;;18.30;74.10;;;;;;4957800;28;20182;-80
2022/06/05 06:06:41;;;;;;;15.02;6.75;;;18.30;73.90;;;;;;4946147;28;20617;-81
2022/06/05 06:09:07;;;;;;;15.18;8.15;;;18.30;73.90;;;;;;4938712;29;20042;-81
2022/06/05 06:11:32;;;;;;;18.63;7.40;;;18.40;73.80;;;;;;4960023;28;20031;-81
2022/06/05 06:13:58;;;;;;;13.32;8.05;;;18.30;74.20;;;;;;4938392;29;20031;-80
2022/06/05 06:16:26;;;;;;;17.45;7.90;;;18.50;73.80;;;;;;4938632;29;20044;-81
2022/06/05 06:18:53;;;;;;;14.88;8.10;;;18.50;74.10;;;;;;4938344;29;20060;-81
2022/06/05 06:21:19;;;;;;;11.80;6.93;;;18.50;74.00;;;;;;4959184;28;20114;-81
2022/06/05 06:23:45;;;;;;;15.20;7.70;;;18.50;73.70;;;;;;4938366;29;20070;-81
2022/06/05 06:26:11;;;;;;;11.10;6.43;;;18.60;73.30;;;;;;4938706;29;20027;-81
2022/06/05 06:28:38;;;;;;;16.92;7.13;;;18.60;73.30;;;;;;4936831;29;20027;-81
2022/06/05 06:31:13;;;;;;;15.65;6.93;;;18.60;73.60;;;;;;4938397;29;21910;-81
2022/06/05 06:33:39;;;;;;;11.43;6.65;;;18.60;73.60;;;;;;4951867;29;20114;-80
2022/06/05 06:36:09;;;;;;;12.98;7.07;;;18.70;73.20;;;;;;4956316;28;20027;-80
2022/06/05 06:38:35;;;;;;;12.60;7.63;;;18.70;73.20;;;;;;4956041;28;20027;-81
2022/06/05 06:41:07;;;;;;;18.27;7.55;;;18.80;73.10;;;;;;4957128;28;20047;-81
2022/06/05 06:43:33;;;;;;;12.85;7.40;;;18.80;72.90;;;;;;4957176;28;20028;-81
2022/06/05 06:46:00;;;;;;;10.85;7.20;;;18.80;73.20;;;;;;4954910;28;20035;-81
2022/06/05 06:48:26;;;;;;;15.35;7.32;;;18.70;73.50;;;;;;4956051;28;20544;-81
2022/06/05 06:50:56;;;;;;;12.27;7.70;;;18.80;73.50;;;;;;4951912;28;20138;-81
2022/06/05 06:53:22;;;;;;;12.38;7.03;;;18.80;73.30;;;;;;4937887;29;20027;-80
2022/06/05 06:55:49;;;;;;;12.13;7.10;;;18.80;73.10;;;;;;4937675;29;20425;-81
2022/06/05 06:58:16;;;;;;;15.30;7.07;;;18.90;73.20;;;;;;4937606;29;20035;-80
2022/06/05 07:00:42;;;;;;;11.27;7.00;;;18.90;73.30;;;;;;4952479;28;20044;-81
2022/06/05 07:03:07;;;;;;;14.52;7.35;;;18.90;73.80;;;;;;4937614;29;20084;-81
2022/06/05 07:05:34;;;;;;;16.83;6.80;;;18.90;73.30;;;;;;4952476;29;20368;-81
2022/06/05 07:08:00;;;;;;;16.05;7.97;;;18.90;73.30;;;;;;4952308;28;20099;-81
2022/06/05 07:10:25;;;;;;;20.60;7.15;;;18.90;73.60;;;;;;4937686;29;20447;-81
2022/06/05 07:12:51;;;;;;;12.43;7.15;;;18.80;73.70;;;;;;4956110;28;20062;-81
2022/06/05 07:15:17;;;;;;;14.30;7.35;;;18.80;73.80;;;;;;4956544;28;20027;-81
2022/06/05 07:17:43;;;;;;;12.80;7.15;;;18.80;73.60;;;;;;4955341;28;20422;-81
2022/06/05 07:20:09;;;;;;;13.75;7.70;;;18.80;73.60;;;;;;4955017;28;20052;-81
2022/06/05 07:22:35;;;;;;;16.23;7.68;;;18.80;73.80;;;;;;4956849;28;20078;-81
2022/06/05 07:25:01;;;;;;;14.07;7.85;;;18.80;73.80;;;;;;4971297;28;20027;-81
2022/06/05 07:27:28;;;;;;;13.18;7.47;;;18.80;73.80;;;;;;4955137;28;20549;-81
2022/06/05 07:29:54;;;;;;;13.10;6.68;;;18.90;73.90;;;;;;4956128;28;20031;-81
2022/06/05 07:32:20;;;;;;;16.40;7.97;;;18.90;73.90;;;;;;4956429;28;20074;-81
2022/06/05 07:34:46;;;;;;;12.48;7.90;;;19.00;73.50;;;;;;4955328;28;20513;-81
2022/06/05 07:37:13;;;;;;;15.65;7.05;;;19.00;73.20;;;;;;4956458;28;20486;-81
2022/06/05 07:39:39;;;;;;;14.88;7.22;;;19.10;73.20;;;;;;4955074;28;20055;-81
2022/06/05 07:42:05;;;;;;;13.02;7.28;;;19.20;72.80;;;;;;4940523;28;20123;-81
2022/06/05 07:44:31;;;;;;;14.00;7.22;;;19.20;73.10;;;;;;4951613;29;20024;-81
2022/06/05 07:46:57;;;;;;;14.50;7.13;;;19.20;72.80;;;;;;4951565;29;20031;-80
2022/06/05 07:49:22;;;;;;;12.20;6.88;;;19.20;72.60;;;;;;4946477;29;20438;-81
2022/06/05 07:54:36;;;;;;;13.25;6.47;;;19.30;71.90;;;;;;4956142;29;20454;-81
2022/06/05 07:57:09;;;;;;;13.80;6.38;;;19.20;72.40;;;;;;4947848;28;20023;-81
2022/06/05 07:59:38;;;;;;;10.73;6.93;;;19.30;72.10;;;;;;4936968;29;20114;-81
2022/06/05 08:02:11;;;;;;;9.98;6.32;;;19.40;71.70;;;;;;4936756;29;20047;-80
2022/06/05 08:04:37;;;;;;;12.23;6.43;;;19.50;71.80;;;;;;4935334;29;20035;-81
2022/06/05 08:07:06;;;;;;;11.63;5.93;;;19.80;71.30;;;;;;4936640;29;20079;-81
2022/06/05 08:09:33;;;;;;;13.23;6.80;;;19.90;70.90;;;;;;4951356;29;20050;-81
2022/06/05 08:12:00;;;;;;;8.63;6.05;;;20.60;69.50;;;;;;4948636;29;20031;-81
2022/06/05 08:14:26;;;;;;;10.90;5.80;;;20.80;68.10;;;;;;4946566;28;20082;-80
2022/06/05 08:16:52;;;;;;;7.78;5.05;;;20.80;67.60;;;;;;4936441;29;20040;-81
2022/06/05 08:19:20;;;;;;;12.30;6.43;;;20.70;67.60;;;;;;4936502;29;20043;-81
2022/06/05 08:21:47;;;;;;;8.95;6.20;;;20.70;67.90;;;;;;4940359;29;20086;-81
2022/06/05 08:24:13;;;;;;;10.35;6.18;;;20.70;67.30;;;;;;4936217;29;20047;-80
2022/06/05 08:26:38;;;;;;;10.23;6.30;;;20.70;67.10;;;;;;4936202;29;20028;-80
2022/06/05 08:29:05;;;;;;;10.55;6.03;;;20.80;67.20;;;;;;4936667;29;20574;-81
2022/06/05 08:31:34;;;;;;;9.55;5.47;;;21.00;66.70;;;;;;4939997;29;20964;-81
2022/06/05 08:34:01;;;;;;;10.10;6.10;;;21.00;66.00;;;;;;4952984;29;20042;-81
2022/06/05 08:36:27;;;;;;;10.65;5.82;;;20.80;66.60;;;;;;4954345;28;20553;-81
2022/06/05 08:42:02;;;;;;;10.30;6.10;;;20.50;67.20;;;;;;4936260;29;20111;-81
2022/06/05 08:44:51;;;;;;;9.27;6.00;;;20.40;67.50;;;;;;4936512;29;20550;-81
2022/06/05 08:47:26;;;;;;;11.45;6.07;;;20.30;67.50;;;;;;4935894;29;20518;-81
2022/06/05 08:49:55;;;;;;;9.95;6.00;;;20.30;67.60;;;;;;4936558;29;20398;-81
2022/06/05 08:52:46;;;;;;;11.63;5.43;;;20.30;68.20;;;;;;4947338;29;20031;-81
2022/06/05 08:55:17;;;;;;;10.43;5.90;;;20.40;68.00;;;;;;4943310;29;20085;-80
2022/06/05 08:58:03;;;;;;;11.18;5.35;;;20.80;67.60;;;;;;4955227;28;20042;-81
2022/06/05 09:00:43;;;;;;;10.27;5.82;;;21.60;65.70;;;;;;4954182;28;20114;-81
2022/06/05 09:03:21;;;;;;;9.85;5.85;;;22.30;64.00;;;;;;4954076;28;20023;-81
2022/06/05 09:05:52;;;;;;;10.32;5.45;;;22.80;61.30;;;;;;4950821;28;20046;-81
2022/06/05 09:08:22;;;;;;;11.07;6.45;;;22.70;60.80;;;;;;4936245;29;20024;-81
2022/06/05 09:11:34;;;;;;;7.70;5.25;;;23.50;58.60;;;;;;4948919;29;20162;-81
2022/06/05 09:14:19;;;;;;;8.35;5.72;;;25.00;54.90;;;;;;4955108;28;20031;-81
2022/06/05 09:16:50;;;;;;;8.30;5.75;;;25.00;53.70;;;;;;4953987;28;20031;-81
2022/06/05 09:19:23;;;;;;;10.00;5.75;;;26.30;51.50;;;;;;4951946;28;20162;-81
2022/06/05 09:22:19;;;;;;;8.40;5.28;;;26.10;50.70;;;;;;4952225;29;20049;-79
2022/06/05 09:25:12;;;;;;;11.13;5.97;;;26.20;49.60;;;;;;4952106;28;20040;-81
2022/06/05 09:28:03;;;;;;;10.43;6.32;;;26.60;48.80;;;;;;4936021;29;20020;-80
2022/06/05 09:30:48;;;;;;;9.32;5.53;;;27.30;47.00;;;;;;4935835;29;20038;-81
2022/06/05 09:33:30;;;;;;;8.07;5.70;;;27.30;46.50;;;;;;4940786;29;20078;-81
2022/06/05 09:36:01;;;;;;;10.00;5.93;;;26.40;47.20;;;;;;4936580;29;20031;-81
2022/06/05 09:39:01;;;;;;;10.43;5.70;;;27.00;47.40;;;;;;4939498;29;20395;-81
2022/06/05 09:41:30;;;;;;;7.55;4.85;;;26.80;45.90;;;;;;4926680;29;20371;-81
2022/06/05 09:43:55;;;;;;;11.02;5.72;;;26.10;48.00;;;;;;4939110;29;20046;-81
2022/06/05 09:46:30;;;;;;;7.93;5.20;;;25.60;50.00;;;;;;4939116;29;20031;-81
2022/06/05 09:49:18;;;;;;;7.10;4.95;;;25.50;49.90;;;;;;4939312;29;20035;-81
2022/06/05 09:51:45;;;;;;;7.70;5.50;;;25.60;50.00;;;;;;4939012;29;20028;-81
2022/06/05 09:54:19;;;;;;;7.07;5.28;;;25.50;50.30;;;;;;4938983;29;20139;-80
2022/06/05 09:59:55;;;;;;;9.98;5.60;;;24.70;51.60;;;;;;4938949;29;20525;-81
2022/06/05 10:02:23;;;;;;;9.98;6.05;;;24.00;52.90;;;;;;4938840;29;20023;-80
2022/06/05 10:04:50;;;;;;;11.90;6.43;;;23.50;53.50;;;;;;4946432;29;20028;-81
2022/06/05 10:07:25;;;;;;;8.20;4.57;;;23.40;54.60;;;;;;4956514;28;20035;-80
2022/06/05 10:09:52;;;;;;;8.30;5.70;;;24.00;53.70;;;;;;4956857;29;20438;-80
2022/06/05 10:12:25;;;;;;;7.53;5.00;;;25.90;50.10;;;;;;4956532;28;20027;-81
2022/06/05 10:15:18;;;;;;;9.13;5.63;;;27.80;45.30;;;;;;4957782;29;20589;-81
2022/06/05 10:18:03;;;;;;;6.90;4.55;;;28.50;42.40;;;;;;4957615;28;20509;-81
2022/06/05 10:20:40;;;;;;;7.97;4.57;;;28.40;43.30;;;;;;4956559;28;20553;-81
2022/06/05 10:23:18;;;;;;;9.40;5.00;;;28.20;43.90;;;;;;4956495;28;20094;-79
2022/06/05 10:25:44;;;;;;;7.15;4.38;;;27.90;43.50;;;;;;4956276;28;20035;-79
2022/06/05 10:28:19;;;;;;;9.18;6.10;;;27.30;44.60;;;;;;4957311;28;20030;-81
2022/06/05 10:31:07;;;;;;;6.13;4.47;;;26.80;45.40;;;;;;4948177;28;20510;-81
2022/06/05 10:33:41;;;;;;;8.10;4.88;;;26.70;46.00;;;;;;4954980;29;20042;-81
2022/06/05 10:36:17;;;;;;;9.52;5.05;;;26.80;45.20;;;;;;4956232;29;20074;-81
2022/06/05 10:38:47;;;;;;;9.48;6.15;;;26.30;47.00;;;;;;4956403;29;20106;-81
2022/06/05 10:41:23;;;;;;;10.32;5.50;;;25.90;47.30;;;;;;4956092;28;20051;-81
2022/06/05 10:44:23;;;;;;;10.40;5.47;;;25.70;48.40;;;;;;4954754;28;20027;-81
2022/06/05 10:47:12;;;;;;;6.65;4.45;;;25.70;49.30;;;;;;4953448;28;20034;-81
2022/06/05 10:49:53;;;;;;;8.85;4.40;;;25.50;49.90;;;;;;4954996;29;20035;-81
2022/06/05 10:52:32;;;;;;;3.92;2.22;;;25.50;49.50;;;;;;4955751;28;20047;-81
2022/06/05 10:55:17;;;;;;;6.32;2.67;;;25.50;49.70;;;;;;4955735;28;20039;-81
2022/06/05 10:57:53;;;;;;;3.90;1.80;;;25.50;47.30;;;;;;4954825;29;20066;-81
2022/06/05 11:00:22;;;;;;;2.40;1.80;;;25.50;47.70;;;;;;4957131;28;20079;-81
2022/06/05 11:03:11;;;;;;;3.47;1.98;;;25.60;47.60;;;;;;4955957;28;20405;-81
2022/06/05 11:05:54;;;;;;;4.47;1.95;;;25.50;46.50;;;;;;4956814;28;20030;-81
2022/06/05 11:08:39;;;;;;;4.55;1.90;;;25.60;46.40;;;;;;4957042;28;20127;-81
2022/06/05 11:14:17;;;;;;;2.63;1.70;;;25.80;47.20;;;;;;4956554;29;20584;-81
2022/06/05 11:16:58;;;;;;;3.20;1.80;;;25.40;43.90;;;;;;4956545;28;20035;-81
2022/06/05 11:19:37;;;;;;;6.22;4.00;;;25.80;45.20;;;;;;4943236;28;20035;-81
2022/06/05 11:22:09;;;;;;;19.67;12.07;;;25.80;45.90;;;;;;4955352;29;20023;-81
2022/06/05 11:25:00;;;;;;;16.90;13.32;;;26.00;47.20;;;;;;4955215;29;20035;-81
2022/06/05 11:27:34;;;;;;;5.10;2.78;;;26.00;44.70;;;;;;4943940;28;20031;-81
2022/06/05 11:30:17;;;;;;;2.85;1.60;;;26.00;43.70;;;;;;4937209;29;20587;-81
2022/06/05 11:33:09;;;;;;;9.48;7.30;;;26.00;44.90;;;;;;4958284;28;20027;-81
2022/06/05 11:36:08;;;;;;;6.65;3.08;;;26.00;42.60;;;;;;4939262;28;20028;-80
2022/06/05 11:38:51;;;;;;;3.87;3.47;;;26.20;43.10;;;;;;4944784;29;20132;-81
2022/06/05 11:41:36;;;;;;;5.40;2.17;;;26.30;41.90;;;;;;4937158;29;20129;-81
2022/06/05 11:44:37;;;;;;;4.63;1.63;;;26.30;42.50;;;;;;4940373;29;20119;-81
2022/06/05 11:47:08;;;;;;;6.75;2.05;;;25.80;41.50;;;;;;4954849;28;20490;-81
2022/06/05 11:49:48;;;;;;;2.53;1.33;;;25.50;42.40;;;;;;4949762;28;20087;-81
2022/06/05 11:52:30;;;;;;;3.47;1.85;;;25.20;42.30;;;;;;4936745;29;20032;-81
2022/06/05 11:55:20;;;;;;;2.63;1.42;;;24.90;42.90;;;;;;4935588;29;20119;-81
2022/06/05 11:57:55;;;;;;;1.75;1.27;;;24.60;43.00;;;;;;4936686;29;20742;-81
2022/06/05 12:00:33;;;;;;;1.73;1.20;;;24.70;44.20;;;;;;4941391;29;20037;-81
2022/06/05 12:03:28;;;;;;;3.67;1.20;;;24.60;43.70;;;;;;4954733;28;20046;-81
2022/06/05 12:05:59;;;;;;;2.72;1.00;;;24.80;43.50;;;;;;4954840;28;20074;-81
2022/06/05 12:08:39;;;;;;;2.22;0.90;;;24.80;42.70;;;;;;4955789;28;20059;-81
2022/06/05 12:11:13;;;;;;;4.57;1.50;;;25.10;43.50;;;;;;4955413;28;20066;-80
2022/06/05 12:14:12;;;;;;;2.45;1.00;;;25.10;40.50;;;;;;4955939;28;20024;-81
2022/06/05 12:16:59;;;;;;;3.42;0.85;;;24.90;42.20;;;;;;4939838;29;20040;-81
2022/06/05 12:19:55;;;;;;;2.60;1.00;;;25.20;43.20;;;;;;4944220;29;20045;-81
2022/06/05 12:22:34;;;;;;;2.42;0.95;;;25.40;40.10;;;;;;4936500;29;20027;-81
2022/06/05 12:25:02;;;;;;;1.95;0.80;;;25.70;41.00;;;;;;4939855;29;20034;-81
2022/06/05 12:27:41;;;;;;;1.17;0.90;;;25.90;41.00;;;;;;4954023;28;20382;-81
2022/06/05 12:30:18;;;;;;;1.70;0.75;;;26.10;40.90;;;;;;4955928;28;20050;-81
2022/06/05 12:32:58;;;;;;;2.22;0.75;;;26.30;41.10;;;;;;4944217;28;20098;-80
2022/06/05 12:35:26;;;;;;;;;;;26.20;40.70;;;;;;4956054;28;20027;-81
2022/06/05 12:38:12;;;;;;;1.58;0.70;;;26.20;41.00;;;;;;4955438;29;19922;-81
2022/06/05 12:40:46;;;;;;;1.65;0.73;;;26.30;42.30;;;;;;4953424;28;20099;-81
2022/06/05 12:43:28;;;;;;;4.57;0.70;;;26.40;41.00;;;;;;4955357;28;20028;-81
2022/06/05 12:46:11;;;;;;;2.95;0.70;;;26.40;39.40;;;;;;4955582;28;20024;-81
2022/06/05 12:48:38;;;;;;;1.20;0.65;;;26.30;40.20;;;;;;4936229;28;20036;-81
2022/06/05 12:51:11;;;;;;;1.20;0.85;;;25.70;39.20;;;;;;4936400;29;20038;-81
2022/06/05 12:54:08;;;;;;;1.85;0.60;;;25.80;40.90;;;;;;4936551;29;20036;-81
2022/06/05 12:56:39;;;;;;;1.85;0.60;;;25.70;40.60;;;;;;4936300;29;20032;-81
2022/06/05 12:59:10;;;;;;;2.25;0.55;;;25.30;40.50;;;;;;4941909;29;20146;-81
2022/06/05 13:02:21;;;;;;;2.35;0.73;;;25.30;41.30;;;;;;4955381;28;20063;-81
2022/06/05 13:05:16;;;;;;;1.17;0.60;;;24.80;41.40;;;;;;4954090;28;20482;-81
2022/06/05 13:07:51;;;;;;;1.83;0.60;;;24.90;42.40;;;;;;4944732;29;20044;-81
2022/06/05 13:10:56;;;;;;;1.13;0.60;;;24.90;41.30;;;;;;4956694;28;20023;-81
2022/06/05 13:13:38;;;;;;;1.30;0.60;;;25.30;42.50;;;;;;4937105;29;20031;-81
2022/06/05 13:16:06;;;;;;;2.15;0.60;;;25.70;42.00;;;;;;4937015;29;20597;-80
2022/06/05 13:19:01;;;;;;;2.10;0.50;;;25.80;41.10;;;;;;4929958;29;20059;-81
2022/06/05 13:21:35;;;;;;;1.50;0.63;;;25.70;40.90;;;;;;4952762;29;20509;-81
2022/06/05 13:24:28;;;;;;;2.50;0.60;;;26.00;42.70;;;;;;4958678;28;20028;-81
2022/06/05 13:27:23;;;;;;;1.67;0.55;;;25.70;40.80;;;;;;4958520;28;20031;-80
2022/06/05 13:29:58;;;;;;;1.60;0.60;;;25.10;41.50;;;;;;4963343;28;20049;-80
2022/06/05 13:32:33;;;;;;;1.10;0.52;;;24.90;41.80;;;;;;4958597;28;20486;-80